Aviatická pouť nabídne gripeny, akrobacii nebo vzácná historická letadla. Přiletí i skokan z vesmíru Felix Baumgartner.

28.05.24 Již o tomto víkendu 1. a 2. června proběhne na pardubickém letišti dvaatřicátý ročník Aviatické pouti, akce pro celou rodinu. Na návštěvníky čeká pestrý letecký i pozemní program s mnoha zábavnými aktivitami pro děti i dospělé. Máme pro vás šest zajímavostí, které byste si neměli nechat ujít. Celý článek

Z Českých Budějovic se bude přes zimu létat do egyptské Hurghady

10.05.24 Cestovní kancelář Čedok přidává na zimní sezonu první destinaci z Českých Budějovic. Z jihočeského letiště začne létat ve spolupráci s leteckou společností Corendon Airlines do egyptské Hurghady. Cestující se proletí na dovolenou k Rudému moři na palubě Boeingu 737-800 s kapacitou pro 189 cestujících v ekonomické třídě. Letadla budou startovat každou neděli od konce prosince, provoz plánuje cestovní kancelář prodloužit až do května. Celý článek

Zprávy

aktualizováno

16.07.24 Celý článek

Všechny zprávy    

Všechny články

Kurzy

Kalendář akcí

ICAO English Exam / Zkouška - každý pátek v měsíci
19.07.24 Online Worldwide Campus or Flying Academy Beranových 130 Praha
ICAO English Exam / Zkouška - každý pátek v měsíci
26.07.24 Online Worldwide Campus or Flying Academy Beranových 130 Praha
ICAO English Exam / Zkouška - každý pátek v měsíci
02.08.24 Online Worldwide Campus or Flying Academy Beranových 130 Praha
ICAO English Exam / Zkouška - každý pátek v měsíci
09.08.24 Online Worldwide Campus or Flying Academy Beranových 130 Praha
Austro Control Exam PPL / ATPL
13.08.24 Flying Academy Beranových 130 Praha

Všechny akce

Zeptejte se odborníka

Zkušený personál jedné z největších leteckých škol Flying Academy je připraven Vám pomoci s jakýmikoli otázkami týkajícími se letectví.

Zeptejte se

Newsletter

Přihlaste se k odběru novinek.

Aktuální počasí

LKKB
LKKB 161100Z 23012KT 9999 FEW026 BKN140 23/17 Q1014 NOSIG

LKKV
LKKV 161100Z 24007KT 190V290 9999 SCT016 21/16 Q1016

LKMT
LKMT 161100Z 03007KT 340V060 CAVOK 29/22 Q1012 NOSIG

LKPR
LKPR 161100Z 22012KT 9999 FEW020 21/17 Q1015 NOSIG

LKTB
LKTB 161100Z 29014KT CAVOK 30/18 Q1012 NOSIG

Briefing

Kurzy měn

AUD AUD 15.80 Kč
EUR EUR 25.43 Kč
GBP GBP 30.25 Kč
HUF HUF 6.49 Kč
CHF CHF 26.06 Kč
USD USD 23.31 Kč